Overview Statistics Trail Chart Weather Telemetry Raw packets
 

This is the latest recevied weather packets stored in our database for station/object EA4HRG-10. If no packets are shown the sender has not sent any weather packets the latest 10 day(s).

<< 10 11 12 13 14 15 16 >>
Time Temp. Humidity Pressure Rain* Wind** Luminosity Snow
1788362739 38.89° C 16% 1012.5 hPa - - - -
1788361852 40° C 15% 1012.3 hPa - - - -
1788360939 41.67° C 14% 1011.8 hPa - - - -
1788360039 41.67° C 14% 1011.9 hPa - - - -
1788359139 42.22° C 14% 1011.9 hPa - - - -
1788358239 41.67° C 15% 1012.2 hPa - - - -
1788357339 40° C 16% 1012.7 hPa - - - -
1788356439 40° C 15% 1012.8 hPa - - - -
1788355539 37.78° C 19% 1013.6 hPa - - - -
1788354639 38.89° C 18% 1013.4 hPa - - - -
1788353739 36.67° C 20% 1014 hPa - - - -
1788352839 37.22° C 21% 1014 hPa - - - -
1788351939 37.22° C 22% 1014.3 hPa - - - -
1788351039 39.44° C 19% 1013.8 hPa - - - -
1788350139 40.56° C 17% 1013.5 hPa - - - -
1788349238 36.67° C 21% 1014.9 hPa - - - -
1788348339 38.89° C 21% 1014.4 hPa - - - -
1788347439 37.22° C 23% 1015.1 hPa - - - -
1788346671 37.22° C 24% 1015.2 hPa - - - -
1788346539 37.22° C 24% 1015.2 hPa - - - -
1788345638 37.22° C 24% 1015.3 hPa - - - -
1788344739 36.67° C 24% 1015.8 hPa - - - -
1788342938 34.44° C 32% 1016.7 hPa - - - -
1788342038 33.89° C 34% 1016.9 hPa - - - -
1788341139 33.33° C 36% 1017.1 hPa - - - -

* Rain since midnight (hover to see other rain measurements)
** Current wind speed in m/s (hover to see current wind gust speed)